createdAt,value
2023-07-06T00:02:05.129Z,6.87
2023-07-06T00:04:36.901Z,5.37
2023-07-06T00:07:06.558Z,7.10
2023-07-06T00:09:37.314Z,6.13
2023-07-06T00:12:05.722Z,6.10
2023-07-06T00:14:34.839Z,6.10
2023-07-06T00:17:15.293Z,6.50
2023-07-06T00:19:45.418Z,6.73
2023-07-06T00:22:14.440Z,6.83
2023-07-06T00:24:43.637Z,6.27
2023-07-06T00:27:12.359Z,6.10
2023-07-06T00:29:58.296Z,5.60
2023-07-06T00:32:30.574Z,6.03
2023-07-06T00:34:57.470Z,6.10
2023-07-06T00:37:25.250Z,6.50
2023-07-06T00:39:54.371Z,5.97
2023-07-06T00:42:24.236Z,6.90
2023-07-06T00:45:00.863Z,6.77
2023-07-06T00:47:38.306Z,5.60
2023-07-06T00:50:12.516Z,5.43
2023-07-06T00:52:44.221Z,5.60
2023-07-06T00:55:14.164Z,5.90
2023-07-06T00:57:43.845Z,6.93
2023-07-06T01:00:15.377Z,7.00
2023-07-06T01:02:42.790Z,6.80
2023-07-06T01:05:12.559Z,6.73
2023-07-06T01:07:43.039Z,7.20
2023-07-06T01:10:10.782Z,8.03
2023-07-06T01:12:37.910Z,6.63
2023-07-06T01:15:08.490Z,7.57
2023-07-06T01:17:50.755Z,8.77
2023-07-06T01:20:33.352Z,7.10
2023-07-06T01:23:18.946Z,8.30
2023-07-06T01:26:10.413Z,5.20
2023-07-06T01:28:49.996Z,6.07
2023-07-06T01:31:37.815Z,6.10
2023-07-06T01:34:19.850Z,8.70
2023-07-06T01:37:04.040Z,10.03
2023-07-06T01:39:31.366Z,6.60
2023-07-06T01:42:09.901Z,8.50
2023-07-06T01:44:38.589Z,5.97
2023-07-06T01:47:05.883Z,8.70
2023-07-06T01:49:35.111Z,5.70
2023-07-06T01:52:05.326Z,5.93
2023-07-06T01:54:42.826Z,9.90
2023-07-06T01:57:19.113Z,5.87
2023-07-06T01:59:50.836Z,8.70
2023-07-06T02:02:18.205Z,6.03
2023-07-06T02:04:45.542Z,5.70
2023-07-06T02:07:14.600Z,8.83
2023-07-06T02:09:49.051Z,11.10
2023-07-06T02:12:16.270Z,9.87
2023-07-06T02:14:43.985Z,7.40
2023-07-06T02:17:11.765Z,6.07
2023-07-06T02:19:40.268Z,5.50
2023-07-06T02:22:07.204Z,6.03
2023-07-06T02:24:35.640Z,7.53
2023-07-06T02:27:03.353Z,9.03
2023-07-06T02:29:31.097Z,5.30
2023-07-06T02:31:57.872Z,6.07
2023-07-06T02:34:28.045Z,6.43
2023-07-06T02:36:58.121Z,8.40
2023-07-06T02:39:26.111Z,6.00
2023-07-06T02:41:55.303Z,5.30
2023-07-06T02:44:23.704Z,6.30
2023-07-06T02:46:51.694Z,6.50
2023-07-06T02:49:19.133Z,8.40
2023-07-06T02:51:47.667Z,6.07
2023-07-06T02:54:19.506Z,6.47
2023-07-06T02:56:46.337Z,4.90
2023-07-06T02:59:15.010Z,6.20
2023-07-06T03:01:41.807Z,5.65
2023-07-06T03:04:11.766Z,7.10
2023-07-06T03:06:39.706Z,6.73
2023-07-06T03:09:08.766Z,7.73
2023-07-06T03:11:37.521Z,5.33
2023-07-06T03:14:05.301Z,9.10
2023-07-06T03:16:41.837Z,5.57
2023-07-06T03:19:10.714Z,11.00
2023-07-06T03:21:39.844Z,5.30
2023-07-06T03:24:10.295Z,8.30
2023-07-06T03:26:38.706Z,6.07
2023-07-06T03:29:07.169Z,6.30
2023-07-06T03:31:34.930Z,9.73
2023-07-06T03:34:03.599Z,5.27
2023-07-06T03:36:32.547Z,6.43
2023-07-06T03:39:00.071Z,4.97
2023-07-06T03:41:28.829Z,5.87
2023-07-06T03:44:00.086Z,7.37
2023-07-06T03:46:32.867Z,5.90
2023-07-06T03:49:01.378Z,6.20
2023-07-06T03:51:28.326Z,8.97
2023-07-06T03:53:55.520Z,7.57
2023-07-06T03:56:29.085Z,7.60
2023-07-06T03:59:01.067Z,8.77
2023-07-06T04:01:29.584Z,6.57
2023-07-06T04:03:57.444Z,6.57
2023-07-06T04:06:30.473Z,7.40
2023-07-06T04:08:58.191Z,5.43
2023-07-06T04:11:25.648Z,5.50
2023-07-06T04:14:00.719Z,9.00
2023-07-06T04:16:28.600Z,8.20
2023-07-06T04:18:57.350Z,6.53
2023-07-06T04:21:24.629Z,6.30
2023-07-06T04:23:51.945Z,5.90
2023-07-06T04:26:21.393Z,7.77
2023-07-06T04:28:50.219Z,7.03
2023-07-06T04:31:18.644Z,7.17
2023-07-06T04:33:48.854Z,5.50
2023-07-06T04:36:19.158Z,5.87
2023-07-06T04:38:46.928Z,5.93
2023-07-06T04:41:16.742Z,5.37
2023-07-06T04:43:43.971Z,5.87
2023-07-06T04:46:11.113Z,5.30
2023-07-06T04:48:37.905Z,8.60
2023-07-06T04:51:05.433Z,5.50
2023-07-06T04:53:34.008Z,6.33
2023-07-06T04:56:02.359Z,6.10
2023-07-06T04:58:32.358Z,6.37
2023-07-06T05:01:06.507Z,6.50
2023-07-06T05:03:34.321Z,5.87
2023-07-06T05:06:06.350Z,8.60
2023-07-06T05:08:34.168Z,6.40
2023-07-06T05:11:04.898Z,5.93
2023-07-06T05:13:32.991Z,7.23
2023-07-06T05:15:59.962Z,8.50
2023-07-06T05:18:27.411Z,5.30
2023-07-06T05:20:58.418Z,7.30
2023-07-06T05:23:30.568Z,8.90
2023-07-06T05:26:04.341Z,6.80
2023-07-06T05:28:32.621Z,7.87
2023-07-06T05:31:03.756Z,6.10
2023-07-06T05:33:33.403Z,7.40
2023-07-06T05:36:00.895Z,10.70
2023-07-06T05:38:27.695Z,6.60
2023-07-06T05:40:54.510Z,5.93
2023-07-06T05:43:22.248Z,8.40
2023-07-06T05:45:49.079Z,10.20
2023-07-06T05:48:16.144Z,7.13
2023-07-06T05:50:43.827Z,5.67
2023-07-06T05:53:10.623Z,9.17
2023-07-06T05:55:37.737Z,7.90
2023-07-06T05:58:05.048Z,7.50
2023-07-06T06:00:40.792Z,11.93
2023-07-06T06:03:08.639Z,8.80
2023-07-06T06:05:36.315Z,6.80
2023-07-06T06:08:03.761Z,12.57
2023-07-06T06:10:32.792Z,7.87
2023-07-06T06:13:02.047Z,5.60
2023-07-06T06:15:28.908Z,19.00
2023-07-06T06:17:58.027Z,10.30
2023-07-06T06:20:25.447Z,10.03
2023-07-06T06:22:53.389Z,5.87
2023-07-06T06:25:20.946Z,5.87
2023-07-06T06:27:48.838Z,6.53
2023-07-06T06:30:19.699Z,7.93
2023-07-06T06:32:47.960Z,7.20
2023-07-06T06:35:29.366Z,8.10
2023-07-06T06:37:59.414Z,7.20
2023-07-06T06:40:28.952Z,7.77
2023-07-06T06:42:56.278Z,6.20
2023-07-06T06:45:23.154Z,8.60
2023-07-06T06:47:50.543Z,8.57
2023-07-06T06:50:21.795Z,7.73
2023-07-06T06:52:50.212Z,8.90
2023-07-06T06:55:18.057Z,7.57
2023-07-06T06:57:45.233Z,6.40
2023-07-06T07:00:15.830Z,6.67
2023-07-06T07:02:42.763Z,9.70
2023-07-06T07:05:11.074Z,8.20
2023-07-06T07:07:41.469Z,8.53
2023-07-06T07:10:10.996Z,6.83
2023-07-06T07:12:58.134Z,7.37
2023-07-06T07:15:40.359Z,9.17
2023-07-06T07:18:11.104Z,6.13
2023-07-06T07:20:37.953Z,7.17
2023-07-06T07:23:06.682Z,7.23
2023-07-06T07:25:34.533Z,6.23
2023-07-06T07:28:02.474Z,7.23
2023-07-06T07:30:29.530Z,6.13
2023-07-06T07:32:56.394Z,10.03
2023-07-06T07:35:23.218Z,6.10
2023-07-06T07:37:52.699Z,9.97
2023-07-06T07:40:20.586Z,6.33
2023-07-06T07:42:50.954Z,8.37
2023-07-06T07:45:20.099Z,6.33
2023-07-06T07:47:52.312Z,5.50
2023-07-06T07:50:22.034Z,6.40
2023-07-06T07:52:51.162Z,6.03
2023-07-06T07:55:23.168Z,6.23
2023-07-06T07:57:50.065Z,5.90
2023-07-06T08:00:22.955Z,5.50
2023-07-06T08:02:54.208Z,5.50
2023-07-06T08:05:21.580Z,5.20
2023-07-06T08:07:53.981Z,6.33
2023-07-06T08:10:25.203Z,5.90
2023-07-06T08:12:56.967Z,6.73
2023-07-06T08:15:28.856Z,6.33
2023-07-06T08:17:59.193Z,5.77
2023-07-06T08:20:45.481Z,4.97
2023-07-06T08:23:25.383Z,4.87
2023-07-06T08:25:52.775Z,5.20
2023-07-06T08:28:25.843Z,5.40
2023-07-06T08:30:55.630Z,5.37
2023-07-06T08:33:22.799Z,5.03
2023-07-06T08:35:51.805Z,8.20
2023-07-06T08:38:19.125Z,5.17
2023-07-06T08:40:53.750Z,7.23
2023-07-06T08:43:26.609Z,4.97
2023-07-06T08:45:58.882Z,5.77
2023-07-06T08:48:32.458Z,5.43
2023-07-06T08:51:04.556Z,5.60
2023-07-06T08:53:42.496Z,5.57
2023-07-06T08:56:15.198Z,5.07
2023-07-06T08:58:43.648Z,4.87
2023-07-06T09:01:22.450Z,5.97
2023-07-06T09:04:18.277Z,4.97
2023-07-06T09:06:49.847Z,6.13
2023-07-06T09:09:16.764Z,5.30
2023-07-06T09:11:48.232Z,4.93
2023-07-06T09:14:17.707Z,5.90
2023-07-06T09:16:57.323Z,6.10
2023-07-06T09:19:25.891Z,8.47
2023-07-06T09:21:59.241Z,6.03
2023-07-06T09:24:29.333Z,7.40
2023-07-06T09:27:02.512Z,6.10
2023-07-06T09:29:37.009Z,7.43
2023-07-06T09:32:17.449Z,5.37
2023-07-06T09:34:48.604Z,4.93
2023-07-06T09:37:19.026Z,11.03
2023-07-06T09:40:09.597Z,4.40
2023-07-06T09:42:47.148Z,5.53
2023-07-06T09:45:31.239Z,4.87
2023-07-06T09:48:05.858Z,5.10
2023-07-06T09:50:38.625Z,4.27
2023-07-06T09:53:14.320Z,5.50
2023-07-06T09:55:42.974Z,7.30
2023-07-06T09:58:20.421Z,5.50
2023-07-06T10:00:57.174Z,4.60
2023-07-06T10:04:15.724Z,4.37
2023-07-06T10:07:19.922Z,4.87
2023-07-06T10:10:10.275Z,8.63
2023-07-06T10:13:09.119Z,4.43
2023-07-06T10:16:02.734Z,4.73
2023-07-06T10:18:40.776Z,4.70
2023-07-06T10:21:50.187Z,4.67
2023-07-06T10:24:41.260Z,4.40
2023-07-06T10:27:17.053Z,5.97
2023-07-06T10:29:47.502Z,4.67
2023-07-06T10:32:34.678Z,6.07
2023-07-06T10:35:25.804Z,5.57
2023-07-06T10:37:53.984Z,6.83
2023-07-06T10:40:26.136Z,5.30
2023-07-06T10:43:19.574Z,5.00
2023-07-06T10:45:52.974Z,5.40
2023-07-06T10:48:24.315Z,4.30
2023-07-06T10:51:13.264Z,5.57
2023-07-06T10:53:45.007Z,5.57
2023-07-06T10:56:26.854Z,4.40
2023-07-06T10:58:58.932Z,4.67
2023-07-06T11:01:40.223Z,4.97
2023-07-06T11:04:43.651Z,4.83
2023-07-06T11:07:12.954Z,5.50
2023-07-06T11:09:51.049Z,5.90
2023-07-06T11:12:20.829Z,4.90
2023-07-06T11:14:50.222Z,5.73
2023-07-06T11:17:50.088Z,5.73
2023-07-06T11:20:24.085Z,4.40
2023-07-06T11:22:56.914Z,5.07
2023-07-06T11:25:25.111Z,4.50
2023-07-06T11:28:01.026Z,4.60
2023-07-06T11:30:59.130Z,5.00
2023-07-06T11:33:58.351Z,5.00
2023-07-06T11:36:41.198Z,5.10
2023-07-06T11:39:32.463Z,4.90
2023-07-06T11:42:00.266Z,9.97
2023-07-06T11:44:52.339Z,7.00
2023-07-06T11:47:37.073Z,4.80
2023-07-06T11:50:09.697Z,4.60
2023-07-06T11:52:41.409Z,5.13
2023-07-06T11:55:32.947Z,4.07
2023-07-06T11:58:09.978Z,5.33
2023-07-06T12:00:52.127Z,6.17
2023-07-06T12:03:22.233Z,4.60
2023-07-06T12:05:52.715Z,4.50
2023-07-06T12:08:29.388Z,4.40
2023-07-06T12:11:24.200Z,4.53
2023-07-06T12:13:55.818Z,4.93
2023-07-06T12:16:27.407Z,4.50
2023-07-06T12:19:05.910Z,5.80
2023-07-06T12:21:40.197Z,4.80
2023-07-06T12:24:08.984Z,4.57
2023-07-06T12:26:42.796Z,4.97
2023-07-06T12:29:10.626Z,6.30
2023-07-06T12:31:41.504Z,4.53
2023-07-06T12:34:10.312Z,4.07
2023-07-06T12:36:42.091Z,4.90
2023-07-06T12:39:10.762Z,3.77
2023-07-06T12:41:38.876Z,4.37
2023-07-06T12:44:07.813Z,4.17
2023-07-06T12:46:36.138Z,4.40
2023-07-06T12:49:07.821Z,5.43
2023-07-06T12:51:39.972Z,4.80
2023-07-06T12:54:07.262Z,4.10
2023-07-06T12:56:34.844Z,7.20
2023-07-06T12:59:04.779Z,4.13
2023-07-06T13:01:36.940Z,4.63
2023-07-06T13:04:11.659Z,4.50
2023-07-06T13:06:43.821Z,5.93
2023-07-06T13:09:26.534Z,4.17
2023-07-06T13:11:58.051Z,4.50
2023-07-06T13:14:25.442Z,4.87
2023-07-06T13:16:57.795Z,4.50
2023-07-06T13:19:26.226Z,5.60
2023-07-06T13:21:55.958Z,4.40
2023-07-06T13:24:24.343Z,3.83
2023-07-06T13:26:52.685Z,4.10
2023-07-06T13:29:21.152Z,3.70
2023-07-06T13:31:54.600Z,3.63
2023-07-06T13:34:25.150Z,3.47
2023-07-06T13:36:53.662Z,5.60
2023-07-06T13:39:21.321Z,4.27
2023-07-06T13:41:49.775Z,4.17
2023-07-06T13:44:17.626Z,4.17
2023-07-06T13:46:48.846Z,3.27
2023-07-06T13:49:18.101Z,3.90
2023-07-06T13:51:45.461Z,4.20
2023-07-06T13:54:14.081Z,4.10
2023-07-06T13:56:44.025Z,3.70
2023-07-06T13:59:11.309Z,4.00
2023-07-06T14:01:38.894Z,4.10
2023-07-06T14:04:06.307Z,4.23
2023-07-06T14:06:34.613Z,4.40
2023-07-06T14:09:02.464Z,3.70
2023-07-06T14:11:30.201Z,3.80
2023-07-06T14:13:57.500Z,3.97
2023-07-06T14:16:26.395Z,4.37
2023-07-06T14:18:54.758Z,4.30
2023-07-06T14:21:24.161Z,4.30
2023-07-06T14:23:52.874Z,4.23
2023-07-06T14:26:20.760Z,4.40
2023-07-06T14:28:51.066Z,5.50
2023-07-06T14:31:18.753Z,4.30
2023-07-06T14:33:46.950Z,4.33
2023-07-06T14:36:14.842Z,4.30
2023-07-06T14:38:42.583Z,6.43
2023-07-06T14:41:11.193Z,6.13
2023-07-06T14:43:38.611Z,4.30
2023-07-06T14:46:09.659Z,4.50
2023-07-06T14:48:36.867Z,4.20
2023-07-06T14:51:08.566Z,5.73
2023-07-06T14:53:36.928Z,4.80
2023-07-06T14:56:04.893Z,4.37
2023-07-06T14:58:32.112Z,4.67
2023-07-06T15:00:59.752Z,6.33
2023-07-06T15:03:27.051Z,4.50
2023-07-06T15:05:54.963Z,4.50
2023-07-06T15:08:22.737Z,3.63
2023-07-06T15:10:50.682Z,5.47
2023-07-06T15:13:18.227Z,3.97
2023-07-06T15:15:45.499Z,3.40
2023-07-06T15:18:13.176Z,4.07
2023-07-06T15:20:40.899Z,4.03
2023-07-06T15:23:10.411Z,4.70
2023-07-06T15:25:38.052Z,3.77
2023-07-06T15:28:05.746Z,6.00
2023-07-06T15:30:33.425Z,4.53
2023-07-06T15:33:02.782Z,4.27
2023-07-06T15:35:30.859Z,4.10
2023-07-06T15:37:58.630Z,3.80
2023-07-06T15:40:25.821Z,4.17
2023-07-06T15:42:56.366Z,3.80
2023-07-06T15:45:26.034Z,4.50
2023-07-06T15:47:58.899Z,4.23
2023-07-06T15:50:27.146Z,4.30
2023-07-06T15:52:54.885Z,5.70
2023-07-06T15:55:22.542Z,4.07
2023-07-06T15:57:49.755Z,5.10
2023-07-06T16:00:17.718Z,4.27
2023-07-06T16:02:45.071Z,3.97
2023-07-06T16:05:12.762Z,4.30
2023-07-06T16:07:39.944Z,3.97
2023-07-06T16:10:07.844Z,4.63
2023-07-06T16:12:35.438Z,3.50
2023-07-06T16:15:02.857Z,4.00
2023-07-06T16:17:30.554Z,4.80
2023-07-06T16:19:58.185Z,4.27
2023-07-06T16:22:25.778Z,4.73
2023-07-06T16:24:57.266Z,3.60
2023-07-06T16:27:26.618Z,4.20
2023-07-06T16:29:54.857Z,3.33
2023-07-06T16:32:22.499Z,3.63
2023-07-06T16:34:49.722Z,4.10
2023-07-06T16:37:17.311Z,4.33
2023-07-06T16:39:45.166Z,3.80
2023-07-06T16:42:15.033Z,3.37
2023-07-06T16:44:42.437Z,3.60
2023-07-06T16:47:09.687Z,3.83
2023-07-06T16:49:37.315Z,4.30
2023-07-06T16:52:04.612Z,4.60
2023-07-06T16:54:32.263Z,4.40
2023-07-06T16:56:59.449Z,3.87
2023-07-06T16:59:27.021Z,4.80
2023-07-06T17:01:54.275Z,4.07
2023-07-06T17:04:23.539Z,4.07
2023-07-06T17:06:51.210Z,4.13
2023-07-06T17:09:20.772Z,4.10
2023-07-06T17:11:49.391Z,4.63
2023-07-06T17:14:16.651Z,6.20
2023-07-06T17:16:43.942Z,8.33
2023-07-06T17:19:11.587Z,12.97
2023-07-06T17:21:39.805Z,4.23
2023-07-06T17:24:07.702Z,7.93
2023-07-06T17:26:35.813Z,5.00
2023-07-06T17:29:03.387Z,6.77
2023-07-06T17:31:30.975Z,4.80
2023-07-06T17:33:58.176Z,4.20
2023-07-06T17:36:25.702Z,4.50
2023-07-06T17:38:52.938Z,4.97
2023-07-06T17:41:20.110Z,5.00
2023-07-06T17:43:47.765Z,4.60
2023-07-06T17:46:14.991Z,3.80
2023-07-06T17:48:42.615Z,4.07
2023-07-06T17:51:11.225Z,4.20
2023-07-06T17:53:38.957Z,4.60
2023-07-06T17:56:06.458Z,5.20
2023-07-06T17:58:33.936Z,5.40
2023-07-06T18:01:01.527Z,5.07
2023-07-06T18:03:30.079Z,4.67
2023-07-06T18:05:57.862Z,4.60
2023-07-06T18:08:25.387Z,6.70
2023-07-06T18:10:52.773Z,6.40
2023-07-06T18:13:21.761Z,4.53
2023-07-06T18:15:50.352Z,5.70
2023-07-06T18:18:18.366Z,5.07
2023-07-06T18:20:46.440Z,4.67
2023-07-06T18:23:13.981Z,5.13
2023-07-06T18:25:45.641Z,5.00
2023-07-06T18:28:14.687Z,4.83
2023-07-06T18:30:41.963Z,4.60
2023-07-06T18:33:09.623Z,5.57
2023-07-06T18:35:36.881Z,5.20
2023-07-06T18:38:04.554Z,4.67
2023-07-06T18:40:32.239Z,4.83
2023-07-06T18:42:59.441Z,5.20
2023-07-06T18:45:40.486Z,4.13
2023-07-06T18:48:09.381Z,5.30
2023-07-06T18:50:37.867Z,5.37
2023-07-06T18:53:05.130Z,4.70
2023-07-06T18:55:32.957Z,4.97
2023-07-06T18:58:00.151Z,6.17
2023-07-06T19:00:27.941Z,6.20
2023-07-06T19:02:57.249Z,8.47
2023-07-06T19:05:24.791Z,6.00
2023-07-06T19:08:01.292Z,5.17
2023-07-06T19:10:29.356Z,9.50
2023-07-06T19:12:58.341Z,6.60
2023-07-06T19:15:25.819Z,10.50
2023-07-06T19:17:53.857Z,5.93
2023-07-06T19:20:21.558Z,4.63
2023-07-06T19:22:56.121Z,7.87
2023-07-06T19:25:23.886Z,6.67
2023-07-06T19:27:51.399Z,6.07
2023-07-06T19:30:18.615Z,10.23
2023-07-06T19:32:46.243Z,6.87
2023-07-06T19:35:13.484Z,5.77
2023-07-06T19:37:41.124Z,5.70
2023-07-06T19:40:08.711Z,12.27
2023-07-06T19:42:36.550Z,8.30
2023-07-06T19:45:04.091Z,6.83
2023-07-06T19:47:31.379Z,7.70
2023-07-06T19:49:58.973Z,6.87
2023-07-06T19:52:26.597Z,7.17
2023-07-06T19:54:53.764Z,6.30
2023-07-06T19:57:38.219Z,5.13
2023-07-06T20:00:09.159Z,9.73
2023-07-06T20:02:36.998Z,7.90
2023-07-06T20:05:04.343Z,7.43
2023-07-06T20:07:31.937Z,9.20
2023-07-06T20:09:59.154Z,8.03
2023-07-06T20:12:27.089Z,8.80
2023-07-06T20:14:56.781Z,9.27
2023-07-06T20:17:24.175Z,7.43
2023-07-06T20:19:51.992Z,9.47
2023-07-06T20:22:19.690Z,10.97
2023-07-06T20:24:46.876Z,7.00
2023-07-06T20:27:14.642Z,7.50
2023-07-06T20:29:41.891Z,7.63
2023-07-06T20:32:15.230Z,7.43
2023-07-06T20:34:42.574Z,8.30
2023-07-06T20:37:10.348Z,10.90
2023-07-06T20:39:38.707Z,11.30
2023-07-06T20:42:06.588Z,9.13
2023-07-06T20:44:35.275Z,8.70
2023-07-06T20:47:04.943Z,10.33
2023-07-06T20:49:32.511Z,8.23
2023-07-06T20:51:59.951Z,14.67
2023-07-06T20:54:27.569Z,12.30
2023-07-06T20:56:55.114Z,11.37
2023-07-06T20:59:22.317Z,7.90
2023-07-06T21:01:50.100Z,9.43
2023-07-06T21:04:18.194Z,12.47
2023-07-06T21:06:45.579Z,8.60
2023-07-06T21:09:13.194Z,7.40
2023-07-06T21:11:40.430Z,13.13
2023-07-06T21:14:12.734Z,10.17
2023-07-06T21:16:40.709Z,11.40
2023-07-06T21:19:09.182Z,7.70
2023-07-06T21:21:37.628Z,8.27
2023-07-06T21:24:04.918Z,8.80
2023-07-06T21:26:32.904Z,7.80
2023-07-06T21:29:00.700Z,8.10
2023-07-06T21:31:27.930Z,8.37
2023-07-06T21:33:55.818Z,8.70
2023-07-06T21:36:23.546Z,8.73
2023-07-06T21:38:51.334Z,10.37
2023-07-06T21:41:19.364Z,12.10
2023-07-06T21:43:46.946Z,12.67
2023-07-06T21:46:14.868Z,13.47
2023-07-06T21:48:43.574Z,9.63
2023-07-06T21:51:12.101Z,10.17
2023-07-06T21:53:40.625Z,13.53
2023-07-06T21:56:12.207Z,10.77
2023-07-06T21:58:40.856Z,10.90
2023-07-06T22:01:09.902Z,11.73
2023-07-06T22:03:38.416Z,10.97
2023-07-06T22:06:08.239Z,11.63
2023-07-06T22:08:35.885Z,10.53
2023-07-06T22:11:05.743Z,14.23
2023-07-06T22:13:34.014Z,11.47
2023-07-06T22:16:01.767Z,15.43
2023-07-06T22:18:30.328Z,14.00
2023-07-06T22:20:58.351Z,20.43
2023-07-06T22:23:26.462Z,14.77
2023-07-06T22:25:54.054Z,12.90
2023-07-06T22:28:21.658Z,11.73
2023-07-06T22:30:53.179Z,16.13
2023-07-06T22:33:20.713Z,12.90
2023-07-06T22:35:48.758Z,18.60
2023-07-06T22:38:15.995Z,18.80
2023-07-06T22:40:43.678Z,14.60
2023-07-06T22:43:11.407Z,14.07
2023-07-06T22:45:38.706Z,17.13
2023-07-06T22:48:06.669Z,18.87
2023-07-06T22:50:34.535Z,20.77
2023-07-06T22:53:03.173Z,17.83
2023-07-06T22:55:32.014Z,22.40
2023-07-06T22:57:59.214Z,27.23
2023-07-06T23:00:27.578Z,20.87
2023-07-06T23:02:55.379Z,21.13
2023-07-06T23:05:25.383Z,21.43
2023-07-06T23:07:54.148Z,21.47
2023-07-06T23:10:22.041Z,21.87
2023-07-06T23:12:49.292Z,19.63
2023-07-06T23:15:20.273Z,25.13
2023-07-06T23:17:47.583Z,20.13
2023-07-06T23:20:14.838Z,18.53
2023-07-06T23:22:42.458Z,18.40
2023-07-06T23:25:13.564Z,20.30
2023-07-06T23:27:41.518Z,20.07
2023-07-06T23:30:10.214Z,15.00
2023-07-06T23:32:40.157Z,18.93
2023-07-06T23:35:14.831Z,15.57
2023-07-06T23:37:46.736Z,14.53
2023-07-06T23:40:16.504Z,14.53
2023-07-06T23:42:43.852Z,15.37
2023-07-06T23:45:11.882Z,18.10
2023-07-06T23:47:39.337Z,16.67
2023-07-06T23:50:07.636Z,13.73
2023-07-06T23:52:35.650Z,13.50
2023-07-06T23:55:03.037Z,14.47
2023-07-06T23:57:30.787Z,13.83
2023-07-06T23:59:58.440Z,14.57
